sensor_id;sensor_type;location;lat;lon;timestamp;pressure;altitude;pressure_sealevel;temperature;humidity
40994;BME280;26722;43.212;27.932;2022-12-18T00:01:34;55145.66;;;-146.72;62.47
40994;BME280;26722;43.212;27.932;2022-12-18T00:04:02;55158.31;;;-146.72;62.46
40994;BME280;26722;43.212;27.932;2022-12-18T00:06:28;55141.44;;;-146.72;62.29
40994;BME280;26722;43.212;27.932;2022-12-18T00:08:56;55149.88;;;-146.72;61.95
40994;BME280;26722;43.212;27.932;2022-12-18T00:11:23;55128.75;;;-146.72;61.64
40994;BME280;26722;43.212;27.932;2022-12-18T00:13:50;55126.66;;;-146.72;61.09
40994;BME280;26722;43.212;27.932;2022-12-18T00:16:19;55154.09;;;-146.72;60.78
40994;BME280;26722;43.212;27.932;2022-12-18T00:18:46;55132.97;;;-146.72;60.64
40994;BME280;26722;43.212;27.932;2022-12-18T00:21:13;55149.88;;;-146.72;60.55
40994;BME280;26722;43.212;27.932;2022-12-18T00:23:40;55128.75;;;-146.72;60.54
40994;BME280;26722;43.212;27.932;2022-12-18T00:26:10;55137.22;;;-146.72;60.32
40994;BME280;26722;43.212;27.932;2022-12-18T00:28:36;55124.53;;;-146.72;60.45
40994;BME280;26722;43.212;27.932;2022-12-18T00:31:07;55145.66;;;-146.72;60.54
40994;BME280;26722;43.212;27.932;2022-12-18T00:33:33;55149.88;;;-146.72;60.46
40994;BME280;26722;43.212;27.932;2022-12-18T00:36:09;55149.88;;;-146.72;60.45
40994;BME280;26722;43.212;27.932;2022-12-18T00:38:35;55139.31;;;-146.72;60.51
40994;BME280;26722;43.212;27.932;2022-12-18T00:41:01;55139.31;;;-146.72;60.60
40994;BME280;26722;43.212;27.932;2022-12-18T00:43:27;55156.22;;;-146.72;60.76
40994;BME280;26722;43.212;27.932;2022-12-18T00:45:53;55166.75;;;-146.72;60.93
40994;BME280;26722;43.212;27.932;2022-12-18T00:48:18;55149.88;;;-146.72;61.16
40994;BME280;26722;43.212;27.932;2022-12-18T00:50:44;55156.22;;;-146.72;61.34
40994;BME280;26722;43.212;27.932;2022-12-18T00:53:09;55147.75;;;-146.72;61.12
40994;BME280;26722;43.212;27.932;2022-12-18T00:55:37;55156.22;;;-146.72;61.48
40994;BME280;26722;43.212;27.932;2022-12-18T00:58:03;55158.31;;;-146.72;61.18
40994;BME280;26722;43.212;27.932;2022-12-18T01:00:28;55158.31;;;-146.72;61.58
40994;BME280;26722;43.212;27.932;2022-12-18T01:02:53;55183.66;;;-146.72;61.63
40994;BME280;26722;43.212;27.932;2022-12-18T01:05:19;55151.97;;;-146.72;61.76
40994;BME280;26722;43.212;27.932;2022-12-18T01:07:44;55160.44;;;-146.72;61.85
40994;BME280;26722;43.212;27.932;2022-12-18T01:10:11;55156.22;;;-146.72;61.75
40994;BME280;26722;43.212;27.932;2022-12-18T01:12:38;55164.66;;;-146.72;61.72
40994;BME280;26722;43.212;27.932;2022-12-18T01:15:05;55156.22;;;-146.72;61.71
40994;BME280;26722;43.212;27.932;2022-12-18T01:17:31;55166.75;;;-146.72;61.75
40994;BME280;26722;43.212;27.932;2022-12-18T01:19:57;55166.75;;;-146.72;61.97
40994;BME280;26722;43.212;27.932;2022-12-18T01:22:22;55168.88;;;-146.72;61.85
40994;BME280;26722;43.212;27.932;2022-12-18T01:24:48;55164.66;;;-146.72;61.56
40994;BME280;26722;43.212;27.932;2022-12-18T01:27:13;55154.09;;;-146.72;61.92
40994;BME280;26722;43.212;27.932;2022-12-18T01:29:39;55158.31;;;-146.72;61.71
40994;BME280;26722;43.212;27.932;2022-12-18T01:32:04;55151.97;;;-146.72;61.61
40994;BME280;26722;43.212;27.932;2022-12-18T01:34:30;55154.09;;;-146.72;61.37
40994;BME280;26722;43.212;27.932;2022-12-18T01:36:55;55164.66;;;-146.72;61.36
40994;BME280;26722;43.212;27.932;2022-12-18T01:39:21;55139.31;;;-146.72;61.23
40994;BME280;26722;43.212;27.932;2022-12-18T01:41:46;55158.31;;;-146.72;61.40
40994;BME280;26722;43.212;27.932;2022-12-18T01:47:39;55166.75;;;-146.72;61.91
40994;BME280;26722;43.212;27.932;2022-12-18T01:50:32;55166.75;;;-146.72;61.98
40994;BME280;26722;43.212;27.932;2022-12-18T01:53:06;55149.88;;;-146.72;61.60
40994;BME280;26722;43.212;27.932;2022-12-18T01:55:46;55160.44;;;-146.72;61.48
40994;BME280;26722;43.212;27.932;2022-12-18T01:58:13;55160.44;;;-146.72;61.26
40994;BME280;26722;43.212;27.932;2022-12-18T02:00:39;55141.44;;;-146.72;61.09
40994;BME280;26722;43.212;27.932;2022-12-18T02:03:04;55145.66;;;-146.72;61.08
40994;BME280;26722;43.212;27.932;2022-12-18T02:08:45;55158.31;;;-146.72;61.46
40994;BME280;26722;43.212;27.932;2022-12-18T02:25:04;55132.97;;;-146.72;61.46
40994;BME280;26722;43.212;27.932;2022-12-18T02:27:33;55177.31;;;-146.72;61.78
40994;BME280;26722;43.212;27.932;2022-12-18T02:30:01;55160.44;;;-146.72;61.85
40994;BME280;26722;43.212;27.932;2022-12-18T02:32:33;55177.31;;;-146.72;61.84
40994;BME280;26722;43.212;27.932;2022-12-18T02:35:03;55145.66;;;-146.72;61.68
40994;BME280;26722;43.212;27.932;2022-12-18T02:37:30;55179.44;;;-146.72;61.50
40994;BME280;26722;43.212;27.932;2022-12-18T02:39:59;55215.31;;;-146.72;61.29
40994;BME280;26722;43.212;27.932;2022-12-18T02:42:26;55158.31;;;-146.72;61.15
40994;BME280;26722;43.212;27.932;2022-12-18T02:44:53;55162.53;;;-146.72;61.22
40994;BME280;26722;43.212;27.932;2022-12-18T02:47:21;55154.09;;;-146.72;61.19
40994;BME280;26722;43.212;27.932;2022-12-18T02:52:54;55151.97;;;-146.72;61.84
40994;BME280;26722;43.212;27.932;2022-12-18T03:00:51;55166.75;;;-146.72;62.10
40994;BME280;26722;43.212;27.932;2022-12-18T03:03:29;55200.53;;;-146.72;62.65
40994;BME280;26722;43.212;27.932;2022-12-18T03:07:01;55168.88;;;-146.72;62.62
40994;BME280;26722;43.212;27.932;2022-12-18T03:09:14;55200.53;;;-146.72;62.89
40994;BME280;26722;43.212;27.932;2022-12-18T03:11:46;55200.53;;;-146.72;62.88
40994;BME280;26722;43.212;27.932;2022-12-18T03:14:34;55187.88;;;-146.72;63.37
40994;BME280;26722;43.212;27.932;2022-12-18T03:17:05;55204.75;;;-146.72;63.35
40994;BME280;26722;43.212;27.932;2022-12-18T03:19:32;55168.88;;;-146.72;63.34
40994;BME280;26722;43.212;27.932;2022-12-18T03:22:00;55160.44;;;-146.72;63.19
40994;BME280;26722;43.212;27.932;2022-12-18T03:24:30;55183.66;;;-146.72;63.26
40994;BME280;26722;43.212;27.932;2022-12-18T03:27:06;55177.31;;;-146.72;63.37
40994;BME280;26722;43.212;27.932;2022-12-18T03:29:37;55179.44;;;-146.72;63.34
40994;BME280;26722;43.212;27.932;2022-12-18T03:32:12;55156.22;;;-146.72;63.40
40994;BME280;26722;43.212;27.932;2022-12-18T03:34:41;55179.44;;;-146.72;63.44
40994;BME280;26722;43.212;27.932;2022-12-18T03:37:09;55196.31;;;-146.72;63.39
40994;BME280;26722;43.212;27.932;2022-12-18T03:39:35;55179.44;;;-146.72;63.35
40994;BME280;26722;43.212;27.932;2022-12-18T03:42:15;55168.88;;;-146.72;63.58
40994;BME280;26722;43.212;27.932;2022-12-18T03:50:16;55170.97;;;-146.72;63.81
40994;BME280;26722;43.212;27.932;2022-12-18T03:52:55;55175.22;;;-146.72;62.96
40994;BME280;26722;43.212;27.932;2022-12-18T03:55:24;55170.97;;;-146.72;61.68
40994;BME280;26722;43.212;27.932;2022-12-18T03:57:52;55177.31;;;-146.72;61.08
40994;BME280;26722;43.212;27.932;2022-12-18T04:00:19;55168.88;;;-146.72;59.86
40994;BME280;26722;43.212;27.932;2022-12-18T04:02:49;55166.75;;;-146.72;60.62
40994;BME280;26722;43.212;27.932;2022-12-18T04:05:17;55198.44;;;-146.72;59.87
40994;BME280;26722;43.212;27.932;2022-12-18T04:07:45;55170.97;;;-146.72;59.55
40994;BME280;26722;43.212;27.932;2022-12-18T04:10:12;55173.09;;;-146.72;58.79
40994;BME280;26722;43.212;27.932;2022-12-18T04:12:39;55175.22;;;-146.72;58.71
40994;BME280;26722;43.212;27.932;2022-12-18T04:15:05;55183.66;;;-146.72;58.81
40994;BME280;26722;43.212;27.932;2022-12-18T04:17:31;55158.31;;;-146.72;58.24
40994;BME280;26722;43.212;27.932;2022-12-18T04:19:56;55196.31;;;-146.72;58.64
40994;BME280;26722;43.212;27.932;2022-12-18T04:22:22;55160.44;;;-146.72;58.37
40994;BME280;26722;43.212;27.932;2022-12-18T04:24:47;55175.22;;;-146.72;59.08
40994;BME280;26722;43.212;27.932;2022-12-18T04:27:13;55187.88;;;-146.72;58.99
40994;BME280;26722;43.212;27.932;2022-12-18T04:29:39;55168.88;;;-146.72;58.86
40994;BME280;26722;43.212;27.932;2022-12-18T04:32:05;55187.88;;;-146.72;58.63
40994;BME280;26722;43.212;27.932;2022-12-18T04:34:30;55204.75;;;-146.72;58.76
40994;BME280;26722;43.212;27.932;2022-12-18T04:36:56;55196.31;;;-146.72;58.52
40994;BME280;26722;43.212;27.932;2022-12-18T04:39:21;55194.22;;;-146.72;58.66
40994;BME280;26722;43.212;27.932;2022-12-18T04:41:47;55183.66;;;-146.72;58.11
40994;BME280;26722;43.212;27.932;2022-12-18T04:44:12;55175.22;;;-146.72;58.22
40994;BME280;26722;43.212;27.932;2022-12-18T04:46:37;55187.88;;;-146.72;57.58
40994;BME280;26722;43.212;27.932;2022-12-18T04:49:03;55183.66;;;-146.72;57.71
40994;BME280;26722;43.212;27.932;2022-12-18T04:51:28;55204.75;;;-146.72;57.75
40994;BME280;26722;43.212;27.932;2022-12-18T04:53:54;55183.66;;;-146.72;57.68
40994;BME280;26722;43.212;27.932;2022-12-18T04:56:19;55196.31;;;-146.72;57.27
40994;BME280;26722;43.212;27.932;2022-12-18T04:58:45;55209.00;;;-146.72;57.68
40994;BME280;26722;43.212;27.932;2022-12-18T05:01:12;55192.09;;;-146.72;58.09
40994;BME280;26722;43.212;27.932;2022-12-18T05:03:38;55196.31;;;-146.72;57.76
40994;BME280;26722;43.212;27.932;2022-12-18T05:06:05;55221.66;;;-146.72;57.76
40994;BME280;26722;43.212;27.932;2022-12-18T05:08:30;55204.75;;;-146.72;58.21
40994;BME280;26722;43.212;27.932;2022-12-18T05:11:00;55206.88;;;-146.72;58.16
40994;BME280;26722;43.212;27.932;2022-12-18T05:13:27;55217.44;;;-146.72;58.08
40994;BME280;26722;43.212;27.932;2022-12-18T05:15:52;55206.88;;;-146.72;58.50
40994;BME280;26722;43.212;27.932;2022-12-18T05:18:18;55202.66;;;-146.72;59.45
40994;BME280;26722;43.212;27.932;2022-12-18T05:20:44;55230.09;;;-146.72;59.87
40994;BME280;26722;43.212;27.932;2022-12-18T05:23:09;55236.44;;;-146.72;59.47
40994;BME280;26722;43.212;27.932;2022-12-18T05:25:35;55225.88;;;-146.72;59.96
40994;BME280;26722;43.212;27.932;2022-12-18T05:28:00;55217.44;;;-146.72;59.65
40994;BME280;26722;43.212;27.932;2022-12-18T05:30:26;55225.88;;;-146.72;59.24
40994;BME280;26722;43.212;27.932;2022-12-18T05:32:51;55217.44;;;-146.72;59.77
40994;BME280;26722;43.212;27.932;2022-12-18T05:35:17;55223.78;;;-146.72;60.19
40994;BME280;26722;43.212;27.932;2022-12-18T05:37:42;55230.09;;;-146.72;60.15
40994;BME280;26722;43.212;27.932;2022-12-18T05:40:08;55234.31;;;-146.72;60.31
40994;BME280;26722;43.212;27.932;2022-12-18T05:42:34;55230.09;;;-146.72;60.57
40994;BME280;26722;43.212;27.932;2022-12-18T05:44:59;55242.78;;;-146.72;60.25
40994;BME280;26722;43.212;27.932;2022-12-18T05:47:24;55255.44;;;-146.72;60.40
40994;BME280;26722;43.212;27.932;2022-12-18T05:49:51;55225.88;;;-146.72;60.35
40994;BME280;26722;43.212;27.932;2022-12-18T05:52:17;55251.22;;;-146.72;60.22
40994;BME280;26722;43.212;27.932;2022-12-18T05:54:42;55255.44;;;-146.72;59.59
40994;BME280;26722;43.212;27.932;2022-12-18T05:57:07;55234.31;;;-146.72;59.06
40994;BME280;26722;43.212;27.932;2022-12-18T05:59:33;55238.53;;;-146.72;58.66
40994;BME280;26722;43.212;27.932;2022-12-18T06:01:59;55247.00;;;-146.72;59.08
40994;BME280;26722;43.212;27.932;2022-12-18T06:04:27;55251.22;;;-146.72;58.87
40994;BME280;26722;43.212;27.932;2022-12-18T06:06:53;55249.09;;;-146.72;59.12
40994;BME280;26722;43.212;27.932;2022-12-18T06:09:19;55255.44;;;-146.72;59.54
40994;BME280;26722;43.212;27.932;2022-12-18T06:11:44;55244.88;;;-146.72;59.77
40994;BME280;26722;43.212;27.932;2022-12-18T06:14:10;55253.31;;;-146.72;59.77
40994;BME280;26722;43.212;27.932;2022-12-18T06:16:35;55240.66;;;-146.72;59.71
40994;BME280;26722;43.212;27.932;2022-12-18T06:19:03;55253.31;;;-146.72;59.61
40994;BME280;26722;43.212;27.932;2022-12-18T06:21:30;55253.31;;;-146.72;59.75
40994;BME280;26722;43.212;27.932;2022-12-18T06:23:56;55268.09;;;-146.72;60.24
40994;BME280;26722;43.212;27.932;2022-12-18T06:26:22;55259.66;;;-146.72;60.63
40994;BME280;26722;43.212;27.932;2022-12-18T06:28:47;55274.44;;;-146.72;60.73
40994;BME280;26722;43.212;27.932;2022-12-18T06:31:13;55259.66;;;-146.72;60.84
40994;BME280;26722;43.212;27.932;2022-12-18T06:33:38;55270.22;;;-146.72;60.97
40994;BME280;26722;43.212;27.932;2022-12-18T06:36:10;55247.00;;;-146.72;61.14
40994;BME280;26722;43.212;27.932;2022-12-18T06:38:37;55255.44;;;-146.72;61.10
40994;BME280;26722;43.212;27.932;2022-12-18T06:41:07;55274.44;;;-146.72;61.03
40994;BME280;26722;43.212;27.932;2022-12-18T06:43:33;55255.44;;;-146.72;61.08
40994;BME280;26722;43.212;27.932;2022-12-18T06:46:02;55266.00;;;-146.72;61.63
40994;BME280;26722;43.212;27.932;2022-12-18T06:48:28;55268.09;;;-146.72;61.97
40994;BME280;26722;43.212;27.932;2022-12-18T06:50:53;55244.88;;;-146.72;61.71
40994;BME280;26722;43.212;27.932;2022-12-18T06:53:19;55255.44;;;-146.72;61.61
40994;BME280;26722;43.212;27.932;2022-12-18T06:55:44;55268.09;;;-146.72;61.69
40994;BME280;26722;43.212;27.932;2022-12-18T06:58:10;55259.66;;;-146.72;61.65
40994;BME280;26722;43.212;27.932;2022-12-18T07:00:35;55266.00;;;-146.72;61.63
40994;BME280;26722;43.212;27.932;2022-12-18T07:03:01;55268.09;;;-146.72;61.54
40994;BME280;26722;43.212;27.932;2022-12-18T07:05:26;55263.88;;;-146.72;61.57
40994;BME280;26722;43.212;27.932;2022-12-18T07:07:52;55253.31;;;-146.72;61.69
40994;BME280;26722;43.212;27.932;2022-12-18T07:10:17;55268.09;;;-146.72;61.10
40994;BME280;26722;43.212;27.932;2022-12-18T07:12:43;55242.78;;;-146.72;60.98
40994;BME280;26722;43.212;27.932;2022-12-18T07:15:08;55263.88;;;-146.72;61.15
40994;BME280;26722;43.212;27.932;2022-12-18T07:17:34;55247.00;;;-146.72;61.08
40994;BME280;26722;43.212;27.932;2022-12-18T07:19:59;55255.44;;;-146.72;61.58
40994;BME280;26722;43.212;27.932;2022-12-18T07:22:25;55247.00;;;-146.72;61.43
40994;BME280;26722;43.212;27.932;2022-12-18T07:24:51;55259.66;;;-146.72;61.60
40994;BME280;26722;43.212;27.932;2022-12-18T07:27:16;55268.09;;;-146.72;61.43
40994;BME280;26722;43.212;27.932;2022-12-18T07:29:42;55242.78;;;-146.72;61.11
40994;BME280;26722;43.212;27.932;2022-12-18T07:32:07;55249.09;;;-146.72;60.71
40994;BME280;26722;43.212;27.932;2022-12-18T07:34:33;55263.88;;;-146.72;60.76
40994;BME280;26722;43.212;27.932;2022-12-18T07:36:59;55266.00;;;-146.72;61.04
40994;BME280;26722;43.212;27.932;2022-12-18T07:39:24;55247.00;;;-146.72;60.23
40994;BME280;26722;43.212;27.932;2022-12-18T07:41:50;55253.31;;;-146.72;60.54
40994;BME280;26722;43.212;27.932;2022-12-18T07:44:33;55259.66;;;-146.72;61.09
40994;BME280;26722;43.212;27.932;2022-12-18T07:46:59;55255.44;;;-146.72;61.77
40994;BME280;26722;43.212;27.932;2022-12-18T07:49:24;55253.31;;;-146.72;62.12
40994;BME280;26722;43.212;27.932;2022-12-18T07:51:50;55259.66;;;-146.72;62.37
40994;BME280;26722;43.212;27.932;2022-12-18T07:54:16;55240.66;;;-146.72;62.63
40994;BME280;26722;43.212;27.932;2022-12-18T07:56:41;55244.88;;;-146.72;62.34
40994;BME280;26722;43.212;27.932;2022-12-18T07:59:07;55263.88;;;-146.72;62.83
40994;BME280;26722;43.212;27.932;2022-12-18T08:01:33;55242.78;;;-146.72;62.04
40994;BME280;26722;43.212;27.932;2022-12-18T08:03:59;55276.56;;;-146.72;62.23
40994;BME280;26722;43.212;27.932;2022-12-18T08:06:25;55255.44;;;-146.72;62.27
40994;BME280;26722;43.212;27.932;2022-12-18T08:08:54;55257.56;;;-146.72;61.78
40994;BME280;26722;43.212;27.932;2022-12-18T08:11:21;55274.44;;;-146.72;62.08
40994;BME280;26722;43.212;27.932;2022-12-18T08:13:47;55242.78;;;-146.72;62.63
40994;BME280;26722;43.212;27.932;2022-12-18T08:16:12;55253.31;;;-146.72;62.78
40994;BME280;26722;43.212;27.932;2022-12-18T08:18:38;55242.78;;;-146.72;62.65
40994;BME280;26722;43.212;27.932;2022-12-18T08:21:11;55257.56;;;-146.72;62.65
40994;BME280;26722;43.212;27.932;2022-12-18T08:23:37;55266.00;;;-146.72;62.87
40994;BME280;26722;43.212;27.932;2022-12-18T08:26:02;55251.22;;;-146.72;63.09
40994;BME280;26722;43.212;27.932;2022-12-18T08:28:27;55247.00;;;-146.72;63.16
40994;BME280;26722;43.212;27.932;2022-12-18T08:30:53;55257.56;;;-146.72;62.90
40994;BME280;26722;43.212;27.932;2022-12-18T08:33:18;55272.31;;;-146.72;62.42
40994;BME280;26722;43.212;27.932;2022-12-18T08:35:44;55263.88;;;-146.72;62.72
40994;BME280;26722;43.212;27.932;2022-12-18T08:38:09;55268.09;;;-146.72;62.67
40994;BME280;26722;43.212;27.932;2022-12-18T08:40:35;55259.66;;;-146.72;62.50
40994;BME280;26722;43.212;27.932;2022-12-18T08:43:00;55272.31;;;-146.72;62.65
40994;BME280;26722;43.212;27.932;2022-12-18T08:45:44;55263.88;;;-146.72;63.08
40994;BME280;26722;43.212;27.932;2022-12-18T08:48:10;55263.88;;;-146.72;63.11
40994;BME280;26722;43.212;27.932;2022-12-18T08:50:35;55247.00;;;-146.72;62.83
40994;BME280;26722;43.212;27.932;2022-12-18T08:53:00;55263.88;;;-146.72;62.69
40994;BME280;26722;43.212;27.932;2022-12-18T08:55:26;55263.88;;;-146.72;62.19
40994;BME280;26722;43.212;27.932;2022-12-18T08:57:51;55272.31;;;-146.72;62.46
40994;BME280;26722;43.212;27.932;2022-12-18T09:00:17;55261.78;;;-146.72;62.60
40994;BME280;26722;43.212;27.932;2022-12-18T09:02:42;55257.56;;;-146.72;62.84
40994;BME280;26722;43.212;27.932;2022-12-18T09:05:08;55263.88;;;-146.72;62.92
40994;BME280;26722;43.212;27.932;2022-12-18T09:07:34;55272.31;;;-146.72;62.76
40994;BME280;26722;43.212;27.932;2022-12-18T09:09:59;55255.44;;;-146.72;62.83
40994;BME280;26722;43.212;27.932;2022-12-18T09:12:25;55251.22;;;-146.72;62.65
40994;BME280;26722;43.212;27.932;2022-12-18T09:14:50;55242.78;;;-146.72;62.81
40994;BME280;26722;43.212;27.932;2022-12-18T09:17:16;55251.22;;;-146.72;62.72
40994;BME280;26722;43.212;27.932;2022-12-18T09:19:41;55238.53;;;-146.72;62.47
40994;BME280;26722;43.212;27.932;2022-12-18T09:22:07;55255.44;;;-146.72;62.45
40994;BME280;26722;43.212;27.932;2022-12-18T09:24:32;55242.78;;;-146.72;62.44
40994;BME280;26722;43.212;27.932;2022-12-18T09:26:58;55259.66;;;-146.72;62.25
40994;BME280;26722;43.212;27.932;2022-12-18T09:29:24;55236.44;;;-146.72;62.69
40994;BME280;26722;43.212;27.932;2022-12-18T09:31:49;55225.88;;;-146.72;62.46
40994;BME280;26722;43.212;27.932;2022-12-18T09:34:15;55247.00;;;-146.72;62.16
40994;BME280;26722;43.212;27.932;2022-12-18T09:36:42;55285.00;;;-146.72;62.10
40994;BME280;26722;43.212;27.932;2022-12-18T09:39:07;55234.31;;;-146.72;61.90
40994;BME280;26722;43.212;27.932;2022-12-18T09:41:53;55249.09;;;-146.72;61.81
40994;BME280;26722;43.212;27.932;2022-12-18T09:44:33;55253.31;;;-146.72;62.03
40994;BME280;26722;43.212;27.932;2022-12-18T09:47:22;55242.78;;;-146.72;61.49
40994;BME280;26722;43.212;27.932;2022-12-18T09:49:58;55221.66;;;-146.72;61.96
40994;BME280;26722;43.212;27.932;2022-12-18T09:55:03;55249.09;;;-146.72;61.95
40994;BME280;26722;43.212;27.932;2022-12-18T09:57:32;55236.44;;;-146.72;62.06
40994;BME280;26722;43.212;27.932;2022-12-18T10:00:04;55251.22;;;-146.72;61.67
40994;BME280;26722;43.212;27.932;2022-12-18T10:02:32;55234.31;;;-146.72;61.63
40994;BME280;26722;43.212;27.932;2022-12-18T10:05:05;55225.88;;;-146.72;61.79
40994;BME280;26722;43.212;27.932;2022-12-18T10:07:38;55225.88;;;-146.72;61.70
40994;BME280;26722;43.212;27.932;2022-12-18T10:15:30;55238.53;;;-146.72;60.89
40994;BME280;26722;43.212;27.932;2022-12-18T10:25:32;55240.66;;;-146.72;61.44
40994;BME280;26722;43.212;27.932;2022-12-18T10:28:12;55242.78;;;-146.72;61.35
40994;BME280;26722;43.212;27.932;2022-12-18T10:30:39;55230.09;;;-146.72;60.70
40994;BME280;26722;43.212;27.932;2022-12-18T10:33:05;55230.09;;;-146.72;60.42
40994;BME280;26722;43.212;27.932;2022-12-18T10:35:31;55221.66;;;-146.72;59.64
40994;BME280;26722;43.212;27.932;2022-12-18T10:40:25;55221.66;;;-146.72;59.14
40994;BME280;26722;43.212;27.932;2022-12-18T10:43:11;55221.66;;;-146.72;58.93
40994;BME280;26722;43.212;27.932;2022-12-18T10:45:37;55211.09;;;-146.72;59.40
40994;BME280;26722;43.212;27.932;2022-12-18T10:48:03;55234.31;;;-146.72;59.78
40994;BME280;26722;43.212;27.932;2022-12-18T10:50:32;55213.22;;;-146.72;59.45
40994;BME280;26722;43.212;27.932;2022-12-18T10:53:03;55221.66;;;-146.72;59.49
40994;BME280;26722;43.212;27.932;2022-12-18T10:55:34;55209.00;;;-146.72;59.70
40994;BME280;26722;43.212;27.932;2022-12-18T10:58:23;55236.44;;;-146.72;59.61
40994;BME280;26722;43.212;27.932;2022-12-18T11:03:36;55217.44;;;-146.72;60.90
40994;BME280;26722;43.212;27.932;2022-12-18T11:06:14;55228.00;;;-146.72;60.37
40994;BME280;26722;43.212;27.932;2022-12-18T11:08:57;55223.78;;;-146.72;60.01
40994;BME280;26722;43.212;27.932;2022-12-18T11:11:23;55217.44;;;-146.72;60.01
40994;BME280;26722;43.212;27.932;2022-12-18T11:14:10;55236.44;;;-146.72;60.47
40994;BME280;26722;43.212;27.932;2022-12-18T11:16:44;55234.31;;;-146.72;60.91
40994;BME280;26722;43.212;27.932;2022-12-18T11:19:27;55234.31;;;-146.72;61.19
40994;BME280;26722;43.212;27.932;2022-12-18T11:21:54;55230.09;;;-146.72;61.65
40994;BME280;26722;43.212;27.932;2022-12-18T11:24:37;55255.44;;;-146.72;62.19
40994;BME280;26722;43.212;27.932;2022-12-18T11:27:04;55234.31;;;-146.72;62.52
40994;BME280;26722;43.212;27.932;2022-12-18T11:29:36;55247.00;;;-146.72;63.17
40994;BME280;26722;43.212;27.932;2022-12-18T11:32:28;55242.78;;;-146.72;63.03
40994;BME280;26722;43.212;27.932;2022-12-18T11:41:14;55259.66;;;-146.72;63.70
40994;BME280;26722;43.212;27.932;2022-12-18T11:43:49;55223.78;;;-146.72;63.50
40994;BME280;26722;43.212;27.932;2022-12-18T11:46:23;55232.22;;;-146.72;63.39
40994;BME280;26722;43.212;27.932;2022-12-18T11:49:01;55249.09;;;-146.72;63.10
40994;BME280;26722;43.212;27.932;2022-12-18T11:51:37;55259.66;;;-146.72;63.04
40994;BME280;26722;43.212;27.932;2022-12-18T11:54:14;55261.78;;;-146.72;63.32
40994;BME280;26722;43.212;27.932;2022-12-18T11:56:48;55232.22;;;-146.72;63.42
40994;BME280;26722;43.212;27.932;2022-12-18T11:59:40;55263.88;;;-146.72;63.47
40994;BME280;26722;43.212;27.932;2022-12-18T12:02:22;55234.31;;;-146.72;63.83
40994;BME280;26722;43.212;27.932;2022-12-18T12:05:01;55242.78;;;-146.72;64.03
40994;BME280;26722;43.212;27.932;2022-12-18T12:37:24;55230.09;;;-146.72;61.54
40994;BME280;26722;43.212;27.932;2022-12-18T12:39:54;55230.09;;;-146.72;61.67
40994;BME280;26722;43.212;27.932;2022-12-18T12:42:29;55228.00;;;-146.72;61.72
40994;BME280;26722;43.212;27.932;2022-12-18T12:45:22;55221.66;;;-146.72;61.49
40994;BME280;26722;43.212;27.932;2022-12-18T12:47:52;55247.00;;;-146.72;61.46
40994;BME280;26722;43.212;27.932;2022-12-18T12:50:20;55230.09;;;-146.72;60.93
40994;BME280;26722;43.212;27.932;2022-12-18T12:52:53;55242.78;;;-146.72;59.41
40994;BME280;26722;43.212;27.932;2022-12-18T12:55:22;55247.00;;;-146.72;57.27
40994;BME280;26722;43.212;27.932;2022-12-18T12:58:10;55228.00;;;-146.72;56.74
40994;BME280;26722;43.212;27.932;2022-12-18T13:00:57;55234.31;;;-146.72;56.06
40994;BME280;26722;43.212;27.932;2022-12-18T13:09:03;55242.78;;;-146.72;53.83
40994;BME280;26722;43.212;27.932;2022-12-18T13:11:41;55247.00;;;-146.72;53.74
40994;BME280;26722;43.212;27.932;2022-12-18T13:14:32;55238.53;;;-146.72;53.77
40994;BME280;26722;43.212;27.932;2022-12-18T13:17:34;55242.78;;;-146.72;52.95
40994;BME280;26722;43.212;27.932;2022-12-18T13:20:08;55242.78;;;-146.72;53.13
40994;BME280;26722;43.212;27.932;2022-12-18T13:22:42;55255.44;;;-146.72;52.77
40994;BME280;26722;43.212;27.932;2022-12-18T13:25:32;55225.88;;;-146.72;51.97
40994;BME280;26722;43.212;27.932;2022-12-18T13:28:06;55249.09;;;-146.72;51.71
40994;BME280;26722;43.212;27.932;2022-12-18T13:38:34;55255.44;;;-146.72;50.85
40994;BME280;26722;43.212;27.932;2022-12-18T13:43:47;55261.78;;;-146.72;50.81
40994;BME280;26722;43.212;27.932;2022-12-18T13:46:27;55259.66;;;-146.72;51.05
40994;BME280;26722;43.212;27.932;2022-12-18T13:51:29;55261.78;;;-146.72;52.51
40994;BME280;26722;43.212;27.932;2022-12-18T13:54:03;55238.53;;;-146.72;52.18
40994;BME280;26722;43.212;27.932;2022-12-18T13:56:32;55259.66;;;-146.72;52.07
40994;BME280;26722;43.212;27.932;2022-12-18T13:59:18;55255.44;;;-146.72;52.29
40994;BME280;26722;43.212;27.932;2022-12-18T14:01:54;55263.88;;;-146.72;52.79
40994;BME280;26722;43.212;27.932;2022-12-18T14:04:24;55268.09;;;-146.72;52.88
40994;BME280;26722;43.212;27.932;2022-12-18T14:06:55;55257.56;;;-146.72;52.73
40994;BME280;26722;43.212;27.932;2022-12-18T14:09:25;55240.66;;;-146.72;52.85
40994;BME280;26722;43.212;27.932;2022-12-18T14:11:51;55255.44;;;-146.72;52.63
40994;BME280;26722;43.212;27.932;2022-12-18T14:14:41;55251.22;;;-146.72;52.29
40994;BME280;26722;43.212;27.932;2022-12-18T14:17:10;55272.31;;;-146.72;51.96
40994;BME280;26722;43.212;27.932;2022-12-18T14:19:36;55234.31;;;-146.72;52.13
40994;BME280;26722;43.212;27.932;2022-12-18T14:22:02;55251.22;;;-146.72;52.49
40994;BME280;26722;43.212;27.932;2022-12-18T14:24:28;55257.56;;;-146.72;52.55
40994;BME280;26722;43.212;27.932;2022-12-18T14:27:22;55255.44;;;-146.72;52.85
40994;BME280;26722;43.212;27.932;2022-12-18T14:29:49;55255.44;;;-146.72;53.21
40994;BME280;26722;43.212;27.932;2022-12-18T14:37:11;55225.88;;;-146.72;54.60